WEATHER

Warnervale Skycam

North West View

North West View

South West View

South West View

Mean Sea Level Pressure Analysis (Synoptic Chart)

Synoptic Chart

  • YSSY TAF

    TAF YSSY 150527Z 1506/1612 15008KT 9999 -SHRA SCT010 BKN020 FM151000 04008KT 9999 -SHRA SCT010 BKN100 FM151500 36005KT 8000 HZ SCT005 FM152100 36005KT 9999 FEW010 FM160100 04015KT 9999 -SHRA SCT060 FM161100 18020G30KT 9000 HZ -SHRA BKN010 PROB40 TEMPO 1602/1609 VRB25G35KT 3000 TSRA FEW015 SCT060CB RMK FM161000 MOD TURB BLW 5000FT T 23 23 23 22 Q 1011 1011 1012 1011

  • YSSY METAR

    TTF METAR YSSY 150800Z 36002KT 9999 -RA FEW020 SCT100 BKN135 23/22 Q1011 RMK RF00.0/000.2 NOSIG

Sydney Rainfall Radar

128 km Sydney Radar

Sydney Rainfall Radar

 

512 km Sydney Radar

Sydney Rainfall Radar 512km

 

Rainfall radar and satellite images obtained from the Bureau of Meteorology. All information provided on this page is for general information and should NOT be used for flight planning.